sensor_id;sensor_type;location;lat;lon;timestamp;temperature;humidity
12408;DHT22;6268;48.188;17.134;2023-04-25T00:00:10;11.80;99.90
12408;DHT22;6268;48.188;17.134;2023-04-25T00:02:40;11.70;99.90
12408;DHT22;6268;48.188;17.134;2023-04-25T00:05:09;11.70;99.90
12408;DHT22;6268;48.188;17.134;2023-04-25T00:07:39;11.70;99.90
12408;DHT22;6268;48.188;17.134;2023-04-25T00:10:09;11.70;99.90
12408;DHT22;6268;48.188;17.134;2023-04-25T00:12:40;11.70;99.90
12408;DHT22;6268;48.188;17.134;2023-04-25T00:15:11;11.80;99.90
12408;DHT22;6268;48.188;17.134;2023-04-25T00:17:40;11.80;99.90
12408;DHT22;6268;48.188;17.134;2023-04-25T00:20:10;11.80;99.90
12408;DHT22;6268;48.188;17.134;2023-04-25T00:22:40;11.80;99.90
12408;DHT22;6268;48.188;17.134;2023-04-25T00:25:09;11.70;99.90
12408;DHT22;6268;48.188;17.134;2023-04-25T00:27:37;11.80;99.90
12408;DHT22;6268;48.188;17.134;2023-04-25T00:30:12;11.80;99.90
12408;DHT22;6268;48.188;17.134;2023-04-25T00:32:41;11.80;99.90
12408;DHT22;6268;48.188;17.134;2023-04-25T00:35:10;11.90;99.90
12408;DHT22;6268;48.188;17.134;2023-04-25T00:37:39;11.90;99.90
12408;DHT22;6268;48.188;17.134;2023-04-25T00:40:08;11.70;99.90
12408;DHT22;6268;48.188;17.134;2023-04-25T00:42:38;11.70;99.90
12408;DHT22;6268;48.188;17.134;2023-04-25T00:45:13;11.60;99.90
12408;DHT22;6268;48.188;17.134;2023-04-25T00:47:42;11.60;99.90
12408;DHT22;6268;48.188;17.134;2023-04-25T00:50:13;11.60;99.90
12408;DHT22;6268;48.188;17.134;2023-04-25T00:52:43;11.60;99.90
12408;DHT22;6268;48.188;17.134;2023-04-25T00:55:13;11.60;99.90
12408;DHT22;6268;48.188;17.134;2023-04-25T00:57:42;11.60;99.90
12408;DHT22;6268;48.188;17.134;2023-04-25T01:00:14;11.60;99.90
12408;DHT22;6268;48.188;17.134;2023-04-25T01:02:43;11.60;99.90
12408;DHT22;6268;48.188;17.134;2023-04-25T01:05:13;11.70;99.90
12408;DHT22;6268;48.188;17.134;2023-04-25T01:07:42;11.70;99.90
12408;DHT22;6268;48.188;17.134;2023-04-25T01:10:11;11.60;99.90
12408;DHT22;6268;48.188;17.134;2023-04-25T01:12:41;11.60;99.90
12408;DHT22;6268;48.188;17.134;2023-04-25T01:15:10;11.60;99.90
12408;DHT22;6268;48.188;17.134;2023-04-25T01:17:40;11.60;99.90
12408;DHT22;6268;48.188;17.134;2023-04-25T01:20:11;11.60;99.90
12408;DHT22;6268;48.188;17.134;2023-04-25T01:22:44;11.50;99.90
12408;DHT22;6268;48.188;17.134;2023-04-25T01:25:14;11.40;99.90
12408;DHT22;6268;48.188;17.134;2023-04-25T01:27:43;11.30;99.90
12408;DHT22;6268;48.188;17.134;2023-04-25T01:30:13;11.40;99.90
12408;DHT22;6268;48.188;17.134;2023-04-25T01:32:42;11.40;99.90
12408;DHT22;6268;48.188;17.134;2023-04-25T01:35:12;11.40;99.90
12408;DHT22;6268;48.188;17.134;2023-04-25T01:37:41;11.40;99.90
12408;DHT22;6268;48.188;17.134;2023-04-25T01:40:12;11.40;99.90
12408;DHT22;6268;48.188;17.134;2023-04-25T01:42:43;11.30;99.90
12408;DHT22;6268;48.188;17.134;2023-04-25T01:45:12;11.30;99.90
12408;DHT22;6268;48.188;17.134;2023-04-25T01:47:41;11.30;99.90
12408;DHT22;6268;48.188;17.134;2023-04-25T01:50:14;11.20;99.90
12408;DHT22;6268;48.188;17.134;2023-04-25T01:52:43;11.20;99.90
12408;DHT22;6268;48.188;17.134;2023-04-25T01:55:14;11.30;99.90
12408;DHT22;6268;48.188;17.134;2023-04-25T01:57:42;11.20;99.90
12408;DHT22;6268;48.188;17.134;2023-04-25T02:00:12;11.10;99.90
12408;DHT22;6268;48.188;17.134;2023-04-25T02:02:41;11.20;99.90
12408;DHT22;6268;48.188;17.134;2023-04-25T02:05:10;11.30;99.90
12408;DHT22;6268;48.188;17.134;2023-04-25T02:07:38;11.30;99.90
12408;DHT22;6268;48.188;17.134;2023-04-25T02:10:08;11.20;99.90
12408;DHT22;6268;48.188;17.134;2023-04-25T02:12:39;11.20;99.90
12408;DHT22;6268;48.188;17.134;2023-04-25T02:15:08;11.20;99.90
12408;DHT22;6268;48.188;17.134;2023-04-25T02:17:37;11.10;99.90
12408;DHT22;6268;48.188;17.134;2023-04-25T02:20:07;11.10;99.90
12408;DHT22;6268;48.188;17.134;2023-04-25T02:22:37;11.10;99.90
12408;DHT22;6268;48.188;17.134;2023-04-25T02:25:06;11.10;99.90
12408;DHT22;6268;48.188;17.134;2023-04-25T02:27:38;11.10;99.90
12408;DHT22;6268;48.188;17.134;2023-04-25T02:30:08;11.10;99.90
12408;DHT22;6268;48.188;17.134;2023-04-25T02:32:37;11.10;99.90
12408;DHT22;6268;48.188;17.134;2023-04-25T02:35:07;11.00;99.90
12408;DHT22;6268;48.188;17.134;2023-04-25T02:37:38;11.10;99.90
12408;DHT22;6268;48.188;17.134;2023-04-25T02:40:08;11.00;99.90
12408;DHT22;6268;48.188;17.134;2023-04-25T02:42:39;11.00;99.90
12408;DHT22;6268;48.188;17.134;2023-04-25T02:45:09;11.00;99.90
12408;DHT22;6268;48.188;17.134;2023-04-25T02:47:38;11.00;99.90
12408;DHT22;6268;48.188;17.134;2023-04-25T02:50:07;11.00;99.90
12408;DHT22;6268;48.188;17.134;2023-04-25T02:52:36;11.10;99.90
12408;DHT22;6268;48.188;17.134;2023-04-25T02:55:05;11.10;99.90
12408;DHT22;6268;48.188;17.134;2023-04-25T02:57:35;11.10;99.90
12408;DHT22;6268;48.188;17.134;2023-04-25T03:00:06;11.20;99.90
12408;DHT22;6268;48.188;17.134;2023-04-25T03:02:35;11.10;99.90
12408;DHT22;6268;48.188;17.134;2023-04-25T03:05:05;11.10;99.90
12408;DHT22;6268;48.188;17.134;2023-04-25T03:07:34;11.10;99.90
12408;DHT22;6268;48.188;17.134;2023-04-25T03:10:03;11.00;99.90
12408;DHT22;6268;48.188;17.134;2023-04-25T03:12:32;11.10;99.90
12408;DHT22;6268;48.188;17.134;2023-04-25T03:15:01;11.10;99.90
12408;DHT22;6268;48.188;17.134;2023-04-25T03:17:32;11.00;99.90
12408;DHT22;6268;48.188;17.134;2023-04-25T03:20:01;11.00;99.90
12408;DHT22;6268;48.188;17.134;2023-04-25T03:22:32;11.00;99.90
12408;DHT22;6268;48.188;17.134;2023-04-25T03:25:00;11.10;99.90
12408;DHT22;6268;48.188;17.134;2023-04-25T03:27:29;11.10;99.90
12408;DHT22;6268;48.188;17.134;2023-04-25T03:29:58;11.10;99.90
12408;DHT22;6268;48.188;17.134;2023-04-25T03:32:27;11.10;99.90
12408;DHT22;6268;48.188;17.134;2023-04-25T03:34:57;11.00;99.90
12408;DHT22;6268;48.188;17.134;2023-04-25T03:37:26;11.00;99.90
12408;DHT22;6268;48.188;17.134;2023-04-25T03:39:55;11.10;99.90
12408;DHT22;6268;48.188;17.134;2023-04-25T03:42:23;11.00;99.90
12408;DHT22;6268;48.188;17.134;2023-04-25T03:44:52;11.00;99.90
12408;DHT22;6268;48.188;17.134;2023-04-25T03:47:21;11.00;99.90
12408;DHT22;6268;48.188;17.134;2023-04-25T03:49:49;11.00;99.90
12408;DHT22;6268;48.188;17.134;2023-04-25T03:52:20;11.00;99.90
12408;DHT22;6268;48.188;17.134;2023-04-25T03:54:48;11.10;99.90
12408;DHT22;6268;48.188;17.134;2023-04-25T03:57:17;11.20;99.90
12408;DHT22;6268;48.188;17.134;2023-04-25T03:59:46;11.20;99.90
12408;DHT22;6268;48.188;17.134;2023-04-25T04:02:15;11.30;99.90
12408;DHT22;6268;48.188;17.134;2023-04-25T04:04:44;11.20;99.90
12408;DHT22;6268;48.188;17.134;2023-04-25T04:07:13;11.40;99.90
12408;DHT22;6268;48.188;17.134;2023-04-25T04:09:43;11.40;99.90
12408;DHT22;6268;48.188;17.134;2023-04-25T04:12:12;11.30;99.90
12408;DHT22;6268;48.188;17.134;2023-04-25T04:14:41;11.30;99.90
12408;DHT22;6268;48.188;17.134;2023-04-25T04:17:10;11.30;99.90
12408;DHT22;6268;48.188;17.134;2023-04-25T04:19:38;11.30;99.90
12408;DHT22;6268;48.188;17.134;2023-04-25T04:22:08;11.20;99.90
12408;DHT22;6268;48.188;17.134;2023-04-25T04:24:37;11.20;99.90
12408;DHT22;6268;48.188;17.134;2023-04-25T04:27:07;11.30;99.90
12408;DHT22;6268;48.188;17.134;2023-04-25T04:29:36;11.30;99.90
12408;DHT22;6268;48.188;17.134;2023-04-25T04:32:05;11.40;99.90
12408;DHT22;6268;48.188;17.134;2023-04-25T04:34:35;11.30;99.90
12408;DHT22;6268;48.188;17.134;2023-04-25T04:37:06;11.40;99.90
12408;DHT22;6268;48.188;17.134;2023-04-25T04:39:36;11.30;99.90
12408;DHT22;6268;48.188;17.134;2023-04-25T04:42:07;11.30;99.90
12408;DHT22;6268;48.188;17.134;2023-04-25T04:44:35;11.30;99.90
12408;DHT22;6268;48.188;17.134;2023-04-25T04:47:06;11.20;99.90
12408;DHT22;6268;48.188;17.134;2023-04-25T04:49:34;11.20;99.90
12408;DHT22;6268;48.188;17.134;2023-04-25T04:52:03;11.30;99.90
12408;DHT22;6268;48.188;17.134;2023-04-25T04:54:32;11.30;99.90
12408;DHT22;6268;48.188;17.134;2023-04-25T04:57:02;11.30;99.90
12408;DHT22;6268;48.188;17.134;2023-04-25T04:59:32;11.30;99.90
12408;DHT22;6268;48.188;17.134;2023-04-25T05:02:02;11.40;99.90
12408;DHT22;6268;48.188;17.134;2023-04-25T05:04:30;11.30;99.90
12408;DHT22;6268;48.188;17.134;2023-04-25T05:06:59;11.30;99.90
12408;DHT22;6268;48.188;17.134;2023-04-25T05:09:28;11.40;99.90
12408;DHT22;6268;48.188;17.134;2023-04-25T05:11:57;11.40;99.90
12408;DHT22;6268;48.188;17.134;2023-04-25T05:14:26;11.40;99.90
12408;DHT22;6268;48.188;17.134;2023-04-25T05:16:56;11.40;99.90
12408;DHT22;6268;48.188;17.134;2023-04-25T05:19:25;11.50;99.90
12408;DHT22;6268;48.188;17.134;2023-04-25T05:21:54;11.50;99.90
12408;DHT22;6268;48.188;17.134;2023-04-25T05:24:22;11.50;99.90
12408;DHT22;6268;48.188;17.134;2023-04-25T05:26:51;11.40;99.90
12408;DHT22;6268;48.188;17.134;2023-04-25T05:29:20;11.40;99.90
12408;DHT22;6268;48.188;17.134;2023-04-25T05:31:49;11.40;99.90
12408;DHT22;6268;48.188;17.134;2023-04-25T05:34:19;11.50;99.90
12408;DHT22;6268;48.188;17.134;2023-04-25T05:36:48;11.50;99.90
12408;DHT22;6268;48.188;17.134;2023-04-25T05:39:16;11.50;99.90
12408;DHT22;6268;48.188;17.134;2023-04-25T05:41:45;11.50;99.90
12408;DHT22;6268;48.188;17.134;2023-04-25T05:44:14;11.50;99.90
12408;DHT22;6268;48.188;17.134;2023-04-25T05:46:43;11.50;99.90
12408;DHT22;6268;48.188;17.134;2023-04-25T05:49:12;11.60;99.90
12408;DHT22;6268;48.188;17.134;2023-04-25T05:51:46;11.70;99.90
12408;DHT22;6268;48.188;17.134;2023-04-25T05:54:14;11.80;99.90
12408;DHT22;6268;48.188;17.134;2023-04-25T05:56:43;11.70;99.90
12408;DHT22;6268;48.188;17.134;2023-04-25T05:59:12;11.80;99.90
12408;DHT22;6268;48.188;17.134;2023-04-25T06:01:41;11.80;99.90
12408;DHT22;6268;48.188;17.134;2023-04-25T06:04:10;11.80;99.90
12408;DHT22;6268;48.188;17.134;2023-04-25T06:06:39;11.70;99.90
12408;DHT22;6268;48.188;17.134;2023-04-25T06:09:09;11.80;99.90
12408;DHT22;6268;48.188;17.134;2023-04-25T06:11:40;11.80;99.90
12408;DHT22;6268;48.188;17.134;2023-04-25T06:14:09;11.80;99.90
12408;DHT22;6268;48.188;17.134;2023-04-25T06:16:37;12.00;99.90
12408;DHT22;6268;48.188;17.134;2023-04-25T06:19:06;12.00;99.90
12408;DHT22;6268;48.188;17.134;2023-04-25T06:21:35;12.10;99.90
12408;DHT22;6268;48.188;17.134;2023-04-25T06:24:04;12.10;99.90
12408;DHT22;6268;48.188;17.134;2023-04-25T06:26:34;12.10;99.90
12408;DHT22;6268;48.188;17.134;2023-04-25T06:29:03;12.10;99.90
12408;DHT22;6268;48.188;17.134;2023-04-25T06:31:32;12.20;99.90
12408;DHT22;6268;48.188;17.134;2023-04-25T06:34:01;12.30;99.90
12408;DHT22;6268;48.188;17.134;2023-04-25T06:36:29;12.30;99.90
12408;DHT22;6268;48.188;17.134;2023-04-25T06:38:58;12.50;99.90
12408;DHT22;6268;48.188;17.134;2023-04-25T06:41:27;12.80;99.90
12408;DHT22;6268;48.188;17.134;2023-04-25T06:43:57;13.20;99.90
12408;DHT22;6268;48.188;17.134;2023-04-25T06:46:26;13.50;99.90
12408;DHT22;6268;48.188;17.134;2023-04-25T06:48:54;14.40;99.90
12408;DHT22;6268;48.188;17.134;2023-04-25T06:51:23;15.00;99.90
12408;DHT22;6268;48.188;17.134;2023-04-25T06:53:55;15.70;99.90
12408;DHT22;6268;48.188;17.134;2023-04-25T06:56:24;16.00;99.90
12408;DHT22;6268;48.188;17.134;2023-04-25T06:58:52;16.30;99.90
12408;DHT22;6268;48.188;17.134;2023-04-25T07:01:22;16.70;99.90
12408;DHT22;6268;48.188;17.134;2023-04-25T07:03:51;17.20;99.90
12408;DHT22;6268;48.188;17.134;2023-04-25T07:06:20;17.40;99.20
12408;DHT22;6268;48.188;17.134;2023-04-25T07:08:49;17.50;96.30
12408;DHT22;6268;48.188;17.134;2023-04-25T07:11:18;17.30;95.60
12408;DHT22;6268;48.188;17.134;2023-04-25T07:13:47;16.90;96.10
12408;DHT22;6268;48.188;17.134;2023-04-25T07:16:16;16.80;96.00
12408;DHT22;6268;48.188;17.134;2023-04-25T07:18:46;16.40;97.20
12408;DHT22;6268;48.188;17.134;2023-04-25T07:21:15;16.20;97.40
12408;DHT22;6268;48.188;17.134;2023-04-25T07:23:44;16.20;97.60
12408;DHT22;6268;48.188;17.134;2023-04-25T07:26:12;16.10;97.90
12408;DHT22;6268;48.188;17.134;2023-04-25T07:28:41;16.70;98.50
12408;DHT22;6268;48.188;17.134;2023-04-25T07:31:10;17.10;97.10
12408;DHT22;6268;48.188;17.134;2023-04-25T07:33:39;17.10;94.70
12408;DHT22;6268;48.188;17.134;2023-04-25T07:36:10;16.90;95.30
12408;DHT22;6268;48.188;17.134;2023-04-25T07:38:39;16.50;95.60
12408;DHT22;6268;48.188;17.134;2023-04-25T07:41:08;16.50;97.10
12408;DHT22;6268;48.188;17.134;2023-04-25T07:43:36;16.40;96.40
12408;DHT22;6268;48.188;17.134;2023-04-25T07:46:05;16.70;96.40
12408;DHT22;6268;48.188;17.134;2023-04-25T07:48:34;17.60;95.30
12408;DHT22;6268;48.188;17.134;2023-04-25T07:51:03;18.20;92.30
12408;DHT22;6268;48.188;17.134;2023-04-25T07:53:33;18.50;87.60
12408;DHT22;6268;48.188;17.134;2023-04-25T07:56:05;18.90;88.40
12408;DHT22;6268;48.188;17.134;2023-04-25T07:58:35;19.30;84.90
12408;DHT22;6268;48.188;17.134;2023-04-25T08:01:04;19.10;84.80
12408;DHT22;6268;48.188;17.134;2023-04-25T08:03:33;19.70;79.10
12408;DHT22;6268;48.188;17.134;2023-04-25T08:06:02;20.00;75.40
12408;DHT22;6268;48.188;17.134;2023-04-25T08:08:35;20.90;70.40
12408;DHT22;6268;48.188;17.134;2023-04-25T08:11:04;21.10;66.70
12408;DHT22;6268;48.188;17.134;2023-04-25T08:13:33;21.40;63.60
12408;DHT22;6268;48.188;17.134;2023-04-25T08:16:03;21.10;64.50
12408;DHT22;6268;48.188;17.134;2023-04-25T08:18:32;21.90;63.50
12408;DHT22;6268;48.188;17.134;2023-04-25T08:21:00;22.70;60.30
12408;DHT22;6268;48.188;17.134;2023-04-25T08:23:29;22.90;59.00
12408;DHT22;6268;48.188;17.134;2023-04-25T08:26:00;22.90;58.30
12408;DHT22;6268;48.188;17.134;2023-04-25T08:28:29;23.20;58.20
12408;DHT22;6268;48.188;17.134;2023-04-25T08:30:58;22.90;55.00
12408;DHT22;6268;48.188;17.134;2023-04-25T08:33:26;22.50;55.50
12408;DHT22;6268;48.188;17.134;2023-04-25T08:35:55;23.10;54.90
12408;DHT22;6268;48.188;17.134;2023-04-25T08:38:24;23.30;55.10
12408;DHT22;6268;48.188;17.134;2023-04-25T08:40:54;23.40;55.10
12408;DHT22;6268;48.188;17.134;2023-04-25T08:43:25;23.30;53.80
12408;DHT22;6268;48.188;17.134;2023-04-25T08:46:00;23.70;53.40
12408;DHT22;6268;48.188;17.134;2023-04-25T08:48:32;24.00;53.10
12408;DHT22;6268;48.188;17.134;2023-04-25T08:51:02;24.20;52.60
12408;DHT22;6268;48.188;17.134;2023-04-25T08:53:37;24.30;52.50
12408;DHT22;6268;48.188;17.134;2023-04-25T08:56:10;24.40;52.20
12408;DHT22;6268;48.188;17.134;2023-04-25T08:58:43;24.30;51.50
12408;DHT22;6268;48.188;17.134;2023-04-25T09:01:12;24.50;51.40
12408;DHT22;6268;48.188;17.134;2023-04-25T09:03:42;24.70;51.60
12408;DHT22;6268;48.188;17.134;2023-04-25T09:06:11;24.90;51.00
12408;DHT22;6268;48.188;17.134;2023-04-25T09:08:41;24.50;49.70
12408;DHT22;6268;48.188;17.134;2023-04-25T09:11:09;23.90;50.60
12408;DHT22;6268;48.188;17.134;2023-04-25T09:13:39;23.30;51.10
12408;DHT22;6268;48.188;17.134;2023-04-25T09:16:09;22.90;52.10
12408;DHT22;6268;48.188;17.134;2023-04-25T09:18:37;22.70;52.50
12408;DHT22;6268;48.188;17.134;2023-04-25T09:21:14;21.90;53.40
12408;DHT22;6268;48.188;17.134;2023-04-25T09:23:45;21.50;54.10
12408;DHT22;6268;48.188;17.134;2023-04-25T09:26:17;21.50;55.10
12408;DHT22;6268;48.188;17.134;2023-04-25T09:28:47;22.10;55.30
12408;DHT22;6268;48.188;17.134;2023-04-25T09:31:23;22.50;54.40
12408;DHT22;6268;48.188;17.134;2023-04-25T09:33:59;23.00;54.00
12408;DHT22;6268;48.188;17.134;2023-04-25T09:36:30;23.50;53.30
12408;DHT22;6268;48.188;17.134;2023-04-25T09:38:59;23.80;52.40
12408;DHT22;6268;48.188;17.134;2023-04-25T09:41:30;23.90;51.80
12408;DHT22;6268;48.188;17.134;2023-04-25T09:43:59;23.90;52.40
12408;DHT22;6268;48.188;17.134;2023-04-25T09:46:34;24.00;50.80
12408;DHT22;6268;48.188;17.134;2023-04-25T09:49:06;23.50;51.70
12408;DHT22;6268;48.188;17.134;2023-04-25T09:51:36;22.60;52.60
12408;DHT22;6268;48.188;17.134;2023-04-25T09:54:05;21.70;54.70
12408;DHT22;6268;48.188;17.134;2023-04-25T09:56:36;22.10;55.30
12408;DHT22;6268;48.188;17.134;2023-04-25T09:59:05;22.60;54.50
12408;DHT22;6268;48.188;17.134;2023-04-25T10:01:40;22.70;53.70
12408;DHT22;6268;48.188;17.134;2023-04-25T10:04:11;23.20;52.20
12408;DHT22;6268;48.188;17.134;2023-04-25T10:06:42;22.40;52.20
12408;DHT22;6268;48.188;17.134;2023-04-25T10:09:11;22.30;52.60
12408;DHT22;6268;48.188;17.134;2023-04-25T10:11:41;22.60;53.00
12408;DHT22;6268;48.188;17.134;2023-04-25T10:14:12;23.20;53.00
12408;DHT22;6268;48.188;17.134;2023-04-25T10:16:43;22.90;51.40
12408;DHT22;6268;48.188;17.134;2023-04-25T10:19:12;22.70;51.90
12408;DHT22;6268;48.188;17.134;2023-04-25T10:21:48;22.10;52.40
12408;DHT22;6268;48.188;17.134;2023-04-25T10:24:20;22.00;52.10
12408;DHT22;6268;48.188;17.134;2023-04-25T10:26:50;22.60;51.50
12408;DHT22;6268;48.188;17.134;2023-04-25T10:29:24;22.30;50.40
12408;DHT22;6268;48.188;17.134;2023-04-25T10:31:55;22.00;52.30
12408;DHT22;6268;48.188;17.134;2023-04-25T10:34:38;22.20;52.20
12408;DHT22;6268;48.188;17.134;2023-04-25T10:37:11;22.60;52.80
12408;DHT22;6268;48.188;17.134;2023-04-25T10:39:40;22.70;53.10
12408;DHT22;6268;48.188;17.134;2023-04-25T10:42:11;22.40;52.60
12408;DHT22;6268;48.188;17.134;2023-04-25T10:44:40;22.10;53.10
12408;DHT22;6268;48.188;17.134;2023-04-25T10:47:36;21.00;53.10
12408;DHT22;6268;48.188;17.134;2023-04-25T10:50:06;20.90;53.30
12408;DHT22;6268;48.188;17.134;2023-04-25T10:52:38;20.50;53.70
12408;DHT22;6268;48.188;17.134;2023-04-25T10:55:08;20.30;53.40
12408;DHT22;6268;48.188;17.134;2023-04-25T10:57:39;20.00;54.20
12408;DHT22;6268;48.188;17.134;2023-04-25T11:00:11;20.10;54.80
12408;DHT22;6268;48.188;17.134;2023-04-25T11:02:46;19.80;55.00
12408;DHT22;6268;48.188;17.134;2023-04-25T11:05:22;20.10;55.00
12408;DHT22;6268;48.188;17.134;2023-04-25T11:07:59;20.30;55.80
12408;DHT22;6268;48.188;17.134;2023-04-25T11:10:34;20.10;55.50
12408;DHT22;6268;48.188;17.134;2023-04-25T11:13:03;20.20;58.10
12408;DHT22;6268;48.188;17.134;2023-04-25T11:15:32;20.20;60.20
12408;DHT22;6268;48.188;17.134;2023-04-25T11:18:02;20.40;59.90
12408;DHT22;6268;48.188;17.134;2023-04-25T11:20:31;20.30;60.20
12408;DHT22;6268;48.188;17.134;2023-04-25T11:23:00;20.50;59.90
12408;DHT22;6268;48.188;17.134;2023-04-25T11:25:30;20.60;59.80
12408;DHT22;6268;48.188;17.134;2023-04-25T11:28:01;20.50;59.50
12408;DHT22;6268;48.188;17.134;2023-04-25T11:30:30;20.60;60.00
12408;DHT22;6268;48.188;17.134;2023-04-25T11:32:58;20.20;58.60
12408;DHT22;6268;48.188;17.134;2023-04-25T11:35:28;20.40;58.00
12408;DHT22;6268;48.188;17.134;2023-04-25T11:37:57;20.30;57.80
12408;DHT22;6268;48.188;17.134;2023-04-25T11:40:26;20.00;58.00
12408;DHT22;6268;48.188;17.134;2023-04-25T11:42:55;19.40;58.50
12408;DHT22;6268;48.188;17.134;2023-04-25T11:45:24;19.10;60.00
12408;DHT22;6268;48.188;17.134;2023-04-25T11:47:53;18.80;60.60
12408;DHT22;6268;48.188;17.134;2023-04-25T11:50:22;18.60;68.20
12408;DHT22;6268;48.188;17.134;2023-04-25T11:52:56;17.80;78.90
12408;DHT22;6268;48.188;17.134;2023-04-25T11:55:25;16.60;95.60
12408;DHT22;6268;48.188;17.134;2023-04-25T11:57:54;16.80;97.70
12408;DHT22;6268;48.188;17.134;2023-04-25T12:00:23;16.90;99.80
12408;DHT22;6268;48.188;17.134;2023-04-25T12:02:54;17.20;99.90
12408;DHT22;6268;48.188;17.134;2023-04-25T12:05:27;17.10;98.90
12408;DHT22;6268;48.188;17.134;2023-04-25T12:08:11;17.10;99.10
12408;DHT22;6268;48.188;17.134;2023-04-25T12:10:43;17.10;99.90
12408;DHT22;6268;48.188;17.134;2023-04-25T12:13:20;16.90;99.90
12408;DHT22;6268;48.188;17.134;2023-04-25T12:15:50;16.90;99.90
12408;DHT22;6268;48.188;17.134;2023-04-25T12:18:20;16.80;99.90
12408;DHT22;6268;48.188;17.134;2023-04-25T12:20:49;17.00;99.90
12408;DHT22;6268;48.188;17.134;2023-04-25T12:23:25;17.10;99.90
12408;DHT22;6268;48.188;17.134;2023-04-25T12:25:55;17.20;99.90
12408;DHT22;6268;48.188;17.134;2023-04-25T12:28:25;17.10;99.90
12408;DHT22;6268;48.188;17.134;2023-04-25T12:30:56;16.80;99.90
12408;DHT22;6268;48.188;17.134;2023-04-25T12:33:27;16.50;99.90
12408;DHT22;6268;48.188;17.134;2023-04-25T12:35:58;16.40;99.90
12408;DHT22;6268;48.188;17.134;2023-04-25T12:38:36;16.60;99.90
12408;DHT22;6268;48.188;17.134;2023-04-25T12:41:07;16.60;99.90
12408;DHT22;6268;48.188;17.134;2023-04-25T12:43:36;16.90;99.90
12408;DHT22;6268;48.188;17.134;2023-04-25T12:46:05;17.00;99.90
12408;DHT22;6268;48.188;17.134;2023-04-25T12:48:33;17.10;99.90
12408;DHT22;6268;48.188;17.134;2023-04-25T12:51:02;17.30;99.90
12408;DHT22;6268;48.188;17.134;2023-04-25T12:53:32;17.50;99.90
12408;DHT22;6268;48.188;17.134;2023-04-25T12:56:05;17.60;99.90
12408;DHT22;6268;48.188;17.134;2023-04-25T12:58:34;17.90;99.90
12408;DHT22;6268;48.188;17.134;2023-04-25T13:01:03;17.90;99.90
12408;DHT22;6268;48.188;17.134;2023-04-25T13:03:32;17.70;99.90
12408;DHT22;6268;48.188;17.134;2023-04-25T13:06:01;17.80;99.90
12408;DHT22;6268;48.188;17.134;2023-04-25T13:08:30;17.80;99.90
12408;DHT22;6268;48.188;17.134;2023-04-25T13:11:00;17.80;99.90
12408;DHT22;6268;48.188;17.134;2023-04-25T13:13:29;17.70;99.90
12408;DHT22;6268;48.188;17.134;2023-04-25T13:15:58;17.50;99.90
12408;DHT22;6268;48.188;17.134;2023-04-25T13:18:27;17.30;99.90
12408;DHT22;6268;48.188;17.134;2023-04-25T13:20:56;16.80;99.90
12408;DHT22;6268;48.188;17.134;2023-04-25T13:23:28;16.40;99.90
12408;DHT22;6268;48.188;17.134;2023-04-25T13:25:59;15.80;99.90
12408;DHT22;6268;48.188;17.134;2023-04-25T13:28:28;15.70;99.90
12408;DHT22;6268;48.188;17.134;2023-04-25T13:30:57;16.00;99.90
12408;DHT22;6268;48.188;17.134;2023-04-25T13:33:26;16.20;99.90
12408;DHT22;6268;48.188;17.134;2023-04-25T13:35:55;16.40;99.90
12408;DHT22;6268;48.188;17.134;2023-04-25T13:38:25;16.70;99.90
12408;DHT22;6268;48.188;17.134;2023-04-25T13:40:54;17.00;99.90
12408;DHT22;6268;48.188;17.134;2023-04-25T13:43:24;17.10;99.90
12408;DHT22;6268;48.188;17.134;2023-04-25T13:45:53;16.40;99.90
12408;DHT22;6268;48.188;17.134;2023-04-25T13:48:21;16.40;99.90
12408;DHT22;6268;48.188;17.134;2023-04-25T13:50:52;15.90;99.90
12408;DHT22;6268;48.188;17.134;2023-04-25T13:53:21;15.80;99.90
12408;DHT22;6268;48.188;17.134;2023-04-25T13:55:50;15.20;99.90
12408;DHT22;6268;48.188;17.134;2023-04-25T13:58:19;15.10;99.90
12408;DHT22;6268;48.188;17.134;2023-04-25T14:00:49;15.40;99.90
12408;DHT22;6268;48.188;17.134;2023-04-25T14:03:18;15.50;99.90
12408;DHT22;6268;48.188;17.134;2023-04-25T14:05:47;15.60;99.90
12408;DHT22;6268;48.188;17.134;2023-04-25T14:08:16;15.60;99.90
12408;DHT22;6268;48.188;17.134;2023-04-25T14:10:45;15.60;99.90
12408;DHT22;6268;48.188;17.134;2023-04-25T14:13:13;15.70;99.90
12408;DHT22;6268;48.188;17.134;2023-04-25T14:15:42;16.10;99.90
12408;DHT22;6268;48.188;17.134;2023-04-25T14:18:12;16.10;99.90
12408;DHT22;6268;48.188;17.134;2023-04-25T14:20:41;16.10;99.90
12408;DHT22;6268;48.188;17.134;2023-04-25T14:23:10;16.10;99.90
12408;DHT22;6268;48.188;17.134;2023-04-25T14:25:39;16.00;99.90
12408;DHT22;6268;48.188;17.134;2023-04-25T14:28:09;16.00;99.90
12408;DHT22;6268;48.188;17.134;2023-04-25T14:30:38;15.80;99.90
12408;DHT22;6268;48.188;17.134;2023-04-25T14:33:07;15.90;99.90
12408;DHT22;6268;48.188;17.134;2023-04-25T14:35:37;15.70;99.90
12408;DHT22;6268;48.188;17.134;2023-04-25T14:38:06;15.70;99.90
12408;DHT22;6268;48.188;17.134;2023-04-25T14:40:35;15.70;99.90
12408;DHT22;6268;48.188;17.134;2023-04-25T14:43:04;15.70;99.90
12408;DHT22;6268;48.188;17.134;2023-04-25T14:45:33;15.80;99.90
12408;DHT22;6268;48.188;17.134;2023-04-25T14:48:02;15.80;99.90
12408;DHT22;6268;48.188;17.134;2023-04-25T14:50:32;15.90;99.90
12408;DHT22;6268;48.188;17.134;2023-04-25T14:53:02;16.00;99.90
12408;DHT22;6268;48.188;17.134;2023-04-25T14:55:31;16.10;99.90
12408;DHT22;6268;48.188;17.134;2023-04-25T14:58:00;15.90;99.90
12408;DHT22;6268;48.188;17.134;2023-04-25T15:00:30;16.10;99.90
12408;DHT22;6268;48.188;17.134;2023-04-25T15:03:00;15.90;99.90
12408;DHT22;6268;48.188;17.134;2023-04-25T15:05:29;16.10;99.90
12408;DHT22;6268;48.188;17.134;2023-04-25T15:07:57;15.90;99.90
12408;DHT22;6268;48.188;17.134;2023-04-25T15:10:28;15.70;99.90
12408;DHT22;6268;48.188;17.134;2023-04-25T15:12:57;15.60;99.90
12408;DHT22;6268;48.188;17.134;2023-04-25T15:15:26;15.40;99.90
12408;DHT22;6268;48.188;17.134;2023-04-25T15:17:55;15.50;99.90
12408;DHT22;6268;48.188;17.134;2023-04-25T15:20:25;15.30;99.90
12408;DHT22;6268;48.188;17.134;2023-04-25T15:22:55;15.30;99.90
12408;DHT22;6268;48.188;17.134;2023-04-25T15:25:24;15.30;99.90
12408;DHT22;6268;48.188;17.134;2023-04-25T15:27:54;15.30;99.90
12408;DHT22;6268;48.188;17.134;2023-04-25T15:30:23;15.20;99.90
12408;DHT22;6268;48.188;17.134;2023-04-25T15:32:52;15.20;99.90
12408;DHT22;6268;48.188;17.134;2023-04-25T15:35:23;15.30;99.90
12408;DHT22;6268;48.188;17.134;2023-04-25T15:37:52;15.20;99.90
12408;DHT22;6268;48.188;17.134;2023-04-25T15:40:21;15.20;99.90
12408;DHT22;6268;48.188;17.134;2023-04-25T15:42:52;15.00;99.90
12408;DHT22;6268;48.188;17.134;2023-04-25T15:45:23;15.00;99.90